sensor_id;sensor_type;location;lat;lon;timestamp;P1;durP1;ratioP1;P2;durP2;ratioP2
10029;SDS011;5055;52.054;8.524;2022-08-19T00:01:55;0.20;;;0.20;;
10029;SDS011;5055;52.054;8.524;2022-08-19T00:04:32;0.20;;;0.20;;
10029;SDS011;5055;52.054;8.524;2022-08-19T00:07:03;0.10;;;0.10;;
10029;SDS011;5055;52.054;8.524;2022-08-19T00:09:33;0.20;;;0.20;;
10029;SDS011;5055;52.054;8.524;2022-08-19T00:12:02;0.20;;;0.20;;
10029;SDS011;5055;52.054;8.524;2022-08-19T00:14:32;0.20;;;0.20;;
10029;SDS011;5055;52.054;8.524;2022-08-19T00:17:01;0.20;;;0.20;;
10029;SDS011;5055;52.054;8.524;2022-08-19T00:19:30;0.10;;;0.10;;
10029;SDS011;5055;52.054;8.524;2022-08-19T00:22:02;0.20;;;0.20;;
10029;SDS011;5055;52.054;8.524;2022-08-19T00:24:31;0.20;;;0.20;;
10029;SDS011;5055;52.054;8.524;2022-08-19T00:27:01;0.20;;;0.20;;
10029;SDS011;5055;52.054;8.524;2022-08-19T00:29:52;0.20;;;0.20;;
10029;SDS011;5055;52.054;8.524;2022-08-19T00:32:21;0.13;;;0.13;;
10029;SDS011;5055;52.054;8.524;2022-08-19T00:34:52;0.20;;;0.20;;
10029;SDS011;5055;52.054;8.524;2022-08-19T00:37:21;0.10;;;0.10;;
10029;SDS011;5055;52.054;8.524;2022-08-19T00:39:52;0.20;;;0.20;;
10029;SDS011;5055;52.054;8.524;2022-08-19T00:42:22;0.20;;;0.20;;
10029;SDS011;5055;52.054;8.524;2022-08-19T00:44:52;0.17;;;0.17;;
10029;SDS011;5055;52.054;8.524;2022-08-19T00:47:21;0.20;;;0.20;;
10029;SDS011;5055;52.054;8.524;2022-08-19T00:49:51;0.20;;;0.20;;
10029;SDS011;5055;52.054;8.524;2022-08-19T00:52:23;0.20;;;0.20;;
10029;SDS011;5055;52.054;8.524;2022-08-19T00:54:55;0.10;;;0.10;;
10029;SDS011;5055;52.054;8.524;2022-08-19T00:57:27;0.20;;;0.20;;
10029;SDS011;5055;52.054;8.524;2022-08-19T00:59:59;0.20;;;0.20;;
10029;SDS011;5055;52.054;8.524;2022-08-19T01:02:29;0.20;;;0.20;;
10029;SDS011;5055;52.054;8.524;2022-08-19T01:05:00;0.20;;;0.20;;
10029;SDS011;5055;52.054;8.524;2022-08-19T01:07:31;0.10;;;0.10;;
10029;SDS011;5055;52.054;8.524;2022-08-19T01:10:04;0.20;;;0.20;;
10029;SDS011;5055;52.054;8.524;2022-08-19T01:12:35;0.17;;;0.17;;
10029;SDS011;5055;52.054;8.524;2022-08-19T01:15:06;0.10;;;0.10;;
10029;SDS011;5055;52.054;8.524;2022-08-19T01:17:38;0.20;;;0.20;;
10029;SDS011;5055;52.054;8.524;2022-08-19T01:20:09;0.30;;;0.30;;
10029;SDS011;5055;52.054;8.524;2022-08-19T01:22:41;0.20;;;0.20;;
10029;SDS011;5055;52.054;8.524;2022-08-19T01:25:13;0.20;;;0.20;;
10029;SDS011;5055;52.054;8.524;2022-08-19T01:27:44;0.20;;;0.20;;
10029;SDS011;5055;52.054;8.524;2022-08-19T01:30:19;0.20;;;0.20;;
10029;SDS011;5055;52.054;8.524;2022-08-19T01:32:51;0.20;;;0.20;;
10029;SDS011;5055;52.054;8.524;2022-08-19T01:35:21;0.20;;;0.20;;
10029;SDS011;5055;52.054;8.524;2022-08-19T01:37:53;0.20;;;0.20;;
10029;SDS011;5055;52.054;8.524;2022-08-19T01:40:24;0.20;;;0.20;;
10029;SDS011;5055;52.054;8.524;2022-08-19T01:42:55;0.10;;;0.10;;
10029;SDS011;5055;52.054;8.524;2022-08-19T01:45:25;0.10;;;0.10;;
10029;SDS011;5055;52.054;8.524;2022-08-19T01:47:54;0.20;;;0.20;;
10029;SDS011;5055;52.054;8.524;2022-08-19T01:50:28;0.20;;;0.20;;
10029;SDS011;5055;52.054;8.524;2022-08-19T01:52:59;0.20;;;0.20;;
10029;SDS011;5055;52.054;8.524;2022-08-19T01:55:33;0.10;;;0.10;;
10029;SDS011;5055;52.054;8.524;2022-08-19T01:58:07;0.20;;;0.20;;
10029;SDS011;5055;52.054;8.524;2022-08-19T02:00:39;0.17;;;0.17;;
10029;SDS011;5055;52.054;8.524;2022-08-19T02:03:11;0.13;;;0.13;;
10029;SDS011;5055;52.054;8.524;2022-08-19T02:05:40;0.20;;;0.20;;
10029;SDS011;5055;52.054;8.524;2022-08-19T02:08:11;0.20;;;0.20;;
10029;SDS011;5055;52.054;8.524;2022-08-19T02:10:40;0.10;;;0.10;;
10029;SDS011;5055;52.054;8.524;2022-08-19T02:13:10;0.20;;;0.20;;
10029;SDS011;5055;52.054;8.524;2022-08-19T02:15:40;0.20;;;0.20;;
10029;SDS011;5055;52.054;8.524;2022-08-19T02:18:09;0.20;;;0.20;;
10029;SDS011;5055;52.054;8.524;2022-08-19T02:20:38;0.20;;;0.20;;
10029;SDS011;5055;52.054;8.524;2022-08-19T02:23:08;0.20;;;0.20;;
10029;SDS011;5055;52.054;8.524;2022-08-19T02:25:43;0.13;;;0.13;;
10029;SDS011;5055;52.054;8.524;2022-08-19T02:28:14;0.20;;;0.20;;
10029;SDS011;5055;52.054;8.524;2022-08-19T02:30:45;0.20;;;0.20;;
10029;SDS011;5055;52.054;8.524;2022-08-19T02:33:15;0.20;;;0.20;;
10029;SDS011;5055;52.054;8.524;2022-08-19T02:35:44;0.20;;;0.20;;
10029;SDS011;5055;52.054;8.524;2022-08-19T02:38:14;0.20;;;0.20;;
10029;SDS011;5055;52.054;8.524;2022-08-19T02:40:57;0.20;;;0.20;;
10029;SDS011;5055;52.054;8.524;2022-08-19T02:43:28;0.20;;;0.20;;
10029;SDS011;5055;52.054;8.524;2022-08-19T02:46:00;0.20;;;0.20;;
10029;SDS011;5055;52.054;8.524;2022-08-19T02:48:28;0.13;;;0.13;;
10029;SDS011;5055;52.054;8.524;2022-08-19T02:50:59;0.10;;;0.10;;
10029;SDS011;5055;52.054;8.524;2022-08-19T02:53:28;0.20;;;0.20;;
10029;SDS011;5055;52.054;8.524;2022-08-19T02:55:58;0.20;;;0.20;;
10029;SDS011;5055;52.054;8.524;2022-08-19T02:58:29;0.20;;;0.20;;
10029;SDS011;5055;52.054;8.524;2022-08-19T03:00:57;0.20;;;0.20;;
10029;SDS011;5055;52.054;8.524;2022-08-19T03:03:26;0.20;;;0.20;;
10029;SDS011;5055;52.054;8.524;2022-08-19T03:06:03;0.10;;;0.10;;
10029;SDS011;5055;52.054;8.524;2022-08-19T03:08:36;0.10;;;0.10;;
10029;SDS011;5055;52.054;8.524;2022-08-19T03:11:10;0.10;;;0.10;;
10029;SDS011;5055;52.054;8.524;2022-08-19T03:13:40;0.20;;;0.20;;
10029;SDS011;5055;52.054;8.524;2022-08-19T03:16:09;0.20;;;0.20;;
10029;SDS011;5055;52.054;8.524;2022-08-19T03:18:38;0.20;;;0.20;;
10029;SDS011;5055;52.054;8.524;2022-08-19T03:21:07;0.10;;;0.10;;
10029;SDS011;5055;52.054;8.524;2022-08-19T03:23:40;0.20;;;0.20;;
10029;SDS011;5055;52.054;8.524;2022-08-19T03:26:13;0.20;;;0.20;;
10029;SDS011;5055;52.054;8.524;2022-08-19T03:28:42;0.20;;;0.20;;
10029;SDS011;5055;52.054;8.524;2022-08-19T03:31:17;0.10;;;0.10;;
10029;SDS011;5055;52.054;8.524;2022-08-19T03:34:08;0.20;;;0.20;;
10029;SDS011;5055;52.054;8.524;2022-08-19T03:36:39;0.20;;;0.20;;
10029;SDS011;5055;52.054;8.524;2022-08-19T03:39:07;0.20;;;0.20;;
10029;SDS011;5055;52.054;8.524;2022-08-19T03:41:39;0.13;;;0.13;;
10029;SDS011;5055;52.054;8.524;2022-08-19T03:44:12;0.20;;;0.20;;
10029;SDS011;5055;52.054;8.524;2022-08-19T03:46:44;0.20;;;0.20;;
10029;SDS011;5055;52.054;8.524;2022-08-19T03:49:14;0.20;;;0.20;;
10029;SDS011;5055;52.054;8.524;2022-08-19T03:51:44;0.10;;;0.10;;
10029;SDS011;5055;52.054;8.524;2022-08-19T03:54:14;0.20;;;0.20;;
10029;SDS011;5055;52.054;8.524;2022-08-19T03:56:47;0.13;;;0.13;;
10029;SDS011;5055;52.054;8.524;2022-08-19T03:59:19;0.20;;;0.20;;
10029;SDS011;5055;52.054;8.524;2022-08-19T04:01:52;0.20;;;0.20;;
10029;SDS011;5055;52.054;8.524;2022-08-19T04:04:22;0.20;;;0.20;;
10029;SDS011;5055;52.054;8.524;2022-08-19T04:06:54;0.27;;;0.27;;
10029;SDS011;5055;52.054;8.524;2022-08-19T04:09:23;0.20;;;0.20;;
10029;SDS011;5055;52.054;8.524;2022-08-19T04:11:55;0.20;;;0.20;;
10029;SDS011;5055;52.054;8.524;2022-08-19T04:14:25;0.20;;;0.20;;
10029;SDS011;5055;52.054;8.524;2022-08-19T04:16:57;0.20;;;0.20;;
10029;SDS011;5055;52.054;8.524;2022-08-19T04:19:26;0.20;;;0.20;;
10029;SDS011;5055;52.054;8.524;2022-08-19T04:21:57;0.20;;;0.20;;
10029;SDS011;5055;52.054;8.524;2022-08-19T04:24:26;0.20;;;0.20;;
10029;SDS011;5055;52.054;8.524;2022-08-19T04:26:56;0.10;;;0.10;;
10029;SDS011;5055;52.054;8.524;2022-08-19T04:29:29;0.10;;;0.10;;
10029;SDS011;5055;52.054;8.524;2022-08-19T04:31:58;0.17;;;0.17;;
10029;SDS011;5055;52.054;8.524;2022-08-19T04:34:35;0.10;;;0.10;;
10029;SDS011;5055;52.054;8.524;2022-08-19T04:37:23;0.20;;;0.20;;
10029;SDS011;5055;52.054;8.524;2022-08-19T04:40:00;0.20;;;0.20;;
10029;SDS011;5055;52.054;8.524;2022-08-19T04:42:49;0.20;;;0.20;;
10029;SDS011;5055;52.054;8.524;2022-08-19T04:45:18;0.17;;;0.17;;
10029;SDS011;5055;52.054;8.524;2022-08-19T04:47:48;0.20;;;0.20;;
10029;SDS011;5055;52.054;8.524;2022-08-19T04:50:24;0.20;;;0.20;;
10029;SDS011;5055;52.054;8.524;2022-08-19T04:52:53;0.20;;;0.20;;
10029;SDS011;5055;52.054;8.524;2022-08-19T04:55:23;0.20;;;0.20;;
10029;SDS011;5055;52.054;8.524;2022-08-19T04:57:54;0.17;;;0.17;;
10029;SDS011;5055;52.054;8.524;2022-08-19T05:00:23;0.20;;;0.20;;
10029;SDS011;5055;52.054;8.524;2022-08-19T05:02:51;0.20;;;0.20;;
10029;SDS011;5055;52.054;8.524;2022-08-19T05:05:20;0.20;;;0.20;;
10029;SDS011;5055;52.054;8.524;2022-08-19T05:07:48;0.20;;;0.20;;
10029;SDS011;5055;52.054;8.524;2022-08-19T05:10:16;0.20;;;0.20;;
10029;SDS011;5055;52.054;8.524;2022-08-19T05:12:45;0.20;;;0.20;;
10029;SDS011;5055;52.054;8.524;2022-08-19T05:15:15;0.20;;;0.20;;
10029;SDS011;5055;52.054;8.524;2022-08-19T05:17:45;0.20;;;0.20;;
10029;SDS011;5055;52.054;8.524;2022-08-19T05:20:27;0.13;;;0.13;;
10029;SDS011;5055;52.054;8.524;2022-08-19T05:23:13;0.10;;;0.10;;
10029;SDS011;5055;52.054;8.524;2022-08-19T05:25:48;0.10;;;0.10;;
10029;SDS011;5055;52.054;8.524;2022-08-19T05:28:18;0.20;;;0.20;;
10029;SDS011;5055;52.054;8.524;2022-08-19T05:30:49;0.20;;;0.20;;
10029;SDS011;5055;52.054;8.524;2022-08-19T05:33:17;0.20;;;0.20;;
10029;SDS011;5055;52.054;8.524;2022-08-19T05:35:46;0.10;;;0.10;;
10029;SDS011;5055;52.054;8.524;2022-08-19T05:38:16;0.10;;;0.10;;
10029;SDS011;5055;52.054;8.524;2022-08-19T05:40:45;0.20;;;0.20;;
10029;SDS011;5055;52.054;8.524;2022-08-19T05:43:15;0.20;;;0.20;;
10029;SDS011;5055;52.054;8.524;2022-08-19T05:45:46;0.20;;;0.20;;
10029;SDS011;5055;52.054;8.524;2022-08-19T05:48:16;0.20;;;0.20;;
10029;SDS011;5055;52.054;8.524;2022-08-19T05:50:46;0.20;;;0.20;;
10029;SDS011;5055;52.054;8.524;2022-08-19T05:53:16;0.20;;;0.20;;
10029;SDS011;5055;52.054;8.524;2022-08-19T05:55:45;0.20;;;0.20;;
10029;SDS011;5055;52.054;8.524;2022-08-19T05:58:13;0.20;;;0.20;;
10029;SDS011;5055;52.054;8.524;2022-08-19T06:00:43;0.20;;;0.20;;
10029;SDS011;5055;52.054;8.524;2022-08-19T06:03:13;0.20;;;0.20;;
10029;SDS011;5055;52.054;8.524;2022-08-19T06:05:41;0.10;;;0.10;;
10029;SDS011;5055;52.054;8.524;2022-08-19T06:08:18;0.10;;;0.10;;
10029;SDS011;5055;52.054;8.524;2022-08-19T06:11:11;0.10;;;0.10;;
10029;SDS011;5055;52.054;8.524;2022-08-19T06:13:40;0.20;;;0.20;;
10029;SDS011;5055;52.054;8.524;2022-08-19T06:16:09;0.20;;;0.20;;
10029;SDS011;5055;52.054;8.524;2022-08-19T06:18:39;0.10;;;0.10;;
10029;SDS011;5055;52.054;8.524;2022-08-19T06:21:07;0.20;;;0.20;;
10029;SDS011;5055;52.054;8.524;2022-08-19T06:23:35;0.10;;;0.10;;
10029;SDS011;5055;52.054;8.524;2022-08-19T06:26:04;0.10;;;0.10;;
10029;SDS011;5055;52.054;8.524;2022-08-19T06:28:34;0.13;;;0.13;;
10029;SDS011;5055;52.054;8.524;2022-08-19T06:31:05;0.10;;;0.10;;
10029;SDS011;5055;52.054;8.524;2022-08-19T06:33:34;0.17;;;0.17;;
10029;SDS011;5055;52.054;8.524;2022-08-19T06:36:05;0.10;;;0.10;;
10029;SDS011;5055;52.054;8.524;2022-08-19T06:38:34;0.20;;;0.20;;
10029;SDS011;5055;52.054;8.524;2022-08-19T06:41:03;0.13;;;0.13;;
10029;SDS011;5055;52.054;8.524;2022-08-19T06:43:33;0.10;;;0.10;;
10029;SDS011;5055;52.054;8.524;2022-08-19T06:46:09;0.20;;;0.20;;
10029;SDS011;5055;52.054;8.524;2022-08-19T06:48:40;0.20;;;0.20;;
10029;SDS011;5055;52.054;8.524;2022-08-19T06:51:13;0.20;;;0.20;;
10029;SDS011;5055;52.054;8.524;2022-08-19T06:53:45;0.10;;;0.10;;
10029;SDS011;5055;52.054;8.524;2022-08-19T06:56:14;0.20;;;0.20;;
10029;SDS011;5055;52.054;8.524;2022-08-19T06:58:43;0.10;;;0.10;;
10029;SDS011;5055;52.054;8.524;2022-08-19T07:01:13;0.10;;;0.10;;
10029;SDS011;5055;52.054;8.524;2022-08-19T07:03:41;0.10;;;0.10;;
10029;SDS011;5055;52.054;8.524;2022-08-19T07:06:10;0.20;;;0.20;;
10029;SDS011;5055;52.054;8.524;2022-08-19T07:09:03;0.10;;;0.10;;
10029;SDS011;5055;52.054;8.524;2022-08-19T07:11:32;0.10;;;0.10;;
10029;SDS011;5055;52.054;8.524;2022-08-19T07:14:01;0.10;;;0.10;;
10029;SDS011;5055;52.054;8.524;2022-08-19T07:16:30;0.13;;;0.13;;
10029;SDS011;5055;52.054;8.524;2022-08-19T07:18:58;0.10;;;0.10;;
10029;SDS011;5055;52.054;8.524;2022-08-19T07:21:42;0.20;;;0.20;;
10029;SDS011;5055;52.054;8.524;2022-08-19T07:24:11;0.20;;;0.20;;
10029;SDS011;5055;52.054;8.524;2022-08-19T07:26:40;0.10;;;0.10;;
10029;SDS011;5055;52.054;8.524;2022-08-19T07:29:10;0.20;;;0.20;;
10029;SDS011;5055;52.054;8.524;2022-08-19T07:31:39;0.20;;;0.20;;
10029;SDS011;5055;52.054;8.524;2022-08-19T07:34:10;0.20;;;0.20;;
10029;SDS011;5055;52.054;8.524;2022-08-19T07:36:40;0.13;;;0.13;;
10029;SDS011;5055;52.054;8.524;2022-08-19T07:39:12;0.10;;;0.10;;
10029;SDS011;5055;52.054;8.524;2022-08-19T07:41:43;0.10;;;0.10;;
10029;SDS011;5055;52.054;8.524;2022-08-19T07:44:12;0.10;;;0.10;;
10029;SDS011;5055;52.054;8.524;2022-08-19T07:46:42;0.10;;;0.10;;
10029;SDS011;5055;52.054;8.524;2022-08-19T07:49:15;0.20;;;0.20;;
10029;SDS011;5055;52.054;8.524;2022-08-19T07:51:47;0.10;;;0.10;;
10029;SDS011;5055;52.054;8.524;2022-08-19T07:54:17;0.20;;;0.20;;
10029;SDS011;5055;52.054;8.524;2022-08-19T07:56:46;0.10;;;0.10;;
10029;SDS011;5055;52.054;8.524;2022-08-19T07:59:18;0.10;;;0.10;;
10029;SDS011;5055;52.054;8.524;2022-08-19T08:01:47;0.10;;;0.10;;
10029;SDS011;5055;52.054;8.524;2022-08-19T08:04:17;0.10;;;0.10;;
10029;SDS011;5055;52.054;8.524;2022-08-19T08:07:05;0.10;;;0.10;;
10029;SDS011;5055;52.054;8.524;2022-08-19T08:09:57;0.10;;;0.10;;
10029;SDS011;5055;52.054;8.524;2022-08-19T08:12:31;0.10;;;0.10;;
10029;SDS011;5055;52.054;8.524;2022-08-19T08:15:06;0.20;;;0.20;;
10029;SDS011;5055;52.054;8.524;2022-08-19T08:17:38;0.20;;;0.20;;
10029;SDS011;5055;52.054;8.524;2022-08-19T08:20:17;0.10;;;0.10;;
10029;SDS011;5055;52.054;8.524;2022-08-19T08:22:47;0.20;;;0.20;;
10029;SDS011;5055;52.054;8.524;2022-08-19T08:25:33;0.10;;;0.10;;
10029;SDS011;5055;52.054;8.524;2022-08-19T08:28:04;0.10;;;0.10;;
10029;SDS011;5055;52.054;8.524;2022-08-19T08:30:42;0.10;;;0.10;;
10029;SDS011;5055;52.054;8.524;2022-08-19T08:33:12;0.10;;;0.10;;
10029;SDS011;5055;52.054;8.524;2022-08-19T08:35:41;0.20;;;0.20;;
10029;SDS011;5055;52.054;8.524;2022-08-19T08:38:13;0.10;;;0.10;;
10029;SDS011;5055;52.054;8.524;2022-08-19T08:40:44;0.10;;;0.10;;
10029;SDS011;5055;52.054;8.524;2022-08-19T08:43:21;0.10;;;0.10;;
10029;SDS011;5055;52.054;8.524;2022-08-19T08:45:59;0.10;;;0.10;;
10029;SDS011;5055;52.054;8.524;2022-08-19T08:48:36;0.10;;;0.10;;
10029;SDS011;5055;52.054;8.524;2022-08-19T08:51:11;0.10;;;0.10;;
10029;SDS011;5055;52.054;8.524;2022-08-19T08:53:48;0.10;;;0.10;;
10029;SDS011;5055;52.054;8.524;2022-08-19T08:56:22;0.10;;;0.10;;
10029;SDS011;5055;52.054;8.524;2022-08-19T08:58:54;0.10;;;0.10;;
10029;SDS011;5055;52.054;8.524;2022-08-19T09:01:26;0.10;;;0.10;;
10029;SDS011;5055;52.054;8.524;2022-08-19T09:03:56;0.10;;;0.10;;
10029;SDS011;5055;52.054;8.524;2022-08-19T09:06:29;0.10;;;0.10;;
10029;SDS011;5055;52.054;8.524;2022-08-19T09:09:12;0.10;;;0.10;;
10029;SDS011;5055;52.054;8.524;2022-08-19T09:11:48;0.10;;;0.10;;
10029;SDS011;5055;52.054;8.524;2022-08-19T09:14:31;0.10;;;0.10;;
10029;SDS011;5055;52.054;8.524;2022-08-19T09:17:17;0.10;;;0.10;;
10029;SDS011;5055;52.054;8.524;2022-08-19T09:19:51;0.10;;;0.10;;
10029;SDS011;5055;52.054;8.524;2022-08-19T09:22:22;0.10;;;0.10;;
10029;SDS011;5055;52.054;8.524;2022-08-19T09:24:54;0.10;;;0.10;;
10029;SDS011;5055;52.054;8.524;2022-08-19T09:27:24;0.10;;;0.10;;
10029;SDS011;5055;52.054;8.524;2022-08-19T09:30:09;0.10;;;0.10;;
10029;SDS011;5055;52.054;8.524;2022-08-19T09:32:41;0.10;;;0.10;;
10029;SDS011;5055;52.054;8.524;2022-08-19T09:35:11;0.10;;;0.10;;
10029;SDS011;5055;52.054;8.524;2022-08-19T09:37:40;0.10;;;0.10;;
10029;SDS011;5055;52.054;8.524;2022-08-19T09:40:12;0.10;;;0.10;;
10029;SDS011;5055;52.054;8.524;2022-08-19T09:42:41;0.10;;;0.10;;
10029;SDS011;5055;52.054;8.524;2022-08-19T09:45:16;0.10;;;0.10;;
10029;SDS011;5055;52.054;8.524;2022-08-19T09:47:48;0.10;;;0.10;;
10029;SDS011;5055;52.054;8.524;2022-08-19T09:50:20;0.10;;;0.10;;
10029;SDS011;5055;52.054;8.524;2022-08-19T09:52:50;0.00;;;0.00;;
10029;SDS011;5055;52.054;8.524;2022-08-19T09:55:24;0.10;;;0.10;;
10029;SDS011;5055;52.054;8.524;2022-08-19T09:57:58;0.10;;;0.10;;
10029;SDS011;5055;52.054;8.524;2022-08-19T10:00:27;0.10;;;0.10;;
10029;SDS011;5055;52.054;8.524;2022-08-19T10:02:57;0.10;;;0.10;;
10029;SDS011;5055;52.054;8.524;2022-08-19T10:05:29;0.10;;;0.10;;
10029;SDS011;5055;52.054;8.524;2022-08-19T10:08:20;0.10;;;0.10;;
10029;SDS011;5055;52.054;8.524;2022-08-19T10:10:54;0.10;;;0.10;;
10029;SDS011;5055;52.054;8.524;2022-08-19T10:13:25;0.10;;;0.10;;
10029;SDS011;5055;52.054;8.524;2022-08-19T10:15:56;0.10;;;0.10;;
10029;SDS011;5055;52.054;8.524;2022-08-19T10:18:30;0.10;;;0.10;;
10029;SDS011;5055;52.054;8.524;2022-08-19T10:21:04;0.10;;;0.10;;
10029;SDS011;5055;52.054;8.524;2022-08-19T10:23:38;0.10;;;0.10;;
10029;SDS011;5055;52.054;8.524;2022-08-19T10:26:13;0.10;;;0.10;;
10029;SDS011;5055;52.054;8.524;2022-08-19T10:28:44;0.10;;;0.10;;
10029;SDS011;5055;52.054;8.524;2022-08-19T10:31:13;0.10;;;0.10;;
10029;SDS011;5055;52.054;8.524;2022-08-19T10:34:06;0.10;;;0.10;;
10029;SDS011;5055;52.054;8.524;2022-08-19T10:36:37;0.10;;;0.10;;
10029;SDS011;5055;52.054;8.524;2022-08-19T10:39:22;0.10;;;0.10;;
10029;SDS011;5055;52.054;8.524;2022-08-19T10:41:57;0.10;;;0.10;;
10029;SDS011;5055;52.054;8.524;2022-08-19T10:44:25;0.10;;;0.10;;
10029;SDS011;5055;52.054;8.524;2022-08-19T10:46:58;0.10;;;0.10;;
10029;SDS011;5055;52.054;8.524;2022-08-19T10:49:27;0.10;;;0.10;;
10029;SDS011;5055;52.054;8.524;2022-08-19T10:51:56;0.10;;;0.10;;
10029;SDS011;5055;52.054;8.524;2022-08-19T10:54:46;0.10;;;0.10;;
10029;SDS011;5055;52.054;8.524;2022-08-19T10:57:35;0.10;;;0.10;;
10029;SDS011;5055;52.054;8.524;2022-08-19T11:00:24;0.10;;;0.10;;
10029;SDS011;5055;52.054;8.524;2022-08-19T11:02:53;0.10;;;0.10;;
10029;SDS011;5055;52.054;8.524;2022-08-19T11:05:22;0.10;;;0.10;;
10029;SDS011;5055;52.054;8.524;2022-08-19T11:07:50;0.10;;;0.10;;
10029;SDS011;5055;52.054;8.524;2022-08-19T11:10:19;0.10;;;0.10;;
10029;SDS011;5055;52.054;8.524;2022-08-19T11:12:51;0.10;;;0.10;;
10029;SDS011;5055;52.054;8.524;2022-08-19T11:15:21;0.10;;;0.10;;
10029;SDS011;5055;52.054;8.524;2022-08-19T11:17:50;0.05;;;0.05;;
10029;SDS011;5055;52.054;8.524;2022-08-19T11:20:20;0.10;;;0.10;;
10029;SDS011;5055;52.054;8.524;2022-08-19T11:22:51;0.00;;;0.00;;
10029;SDS011;5055;52.054;8.524;2022-08-19T11:25:20;0.05;;;0.05;;
10029;SDS011;5055;52.054;8.524;2022-08-19T11:27:49;0.10;;;0.10;;
10029;SDS011;5055;52.054;8.524;2022-08-19T11:30:19;0.10;;;0.10;;
10029;SDS011;5055;52.054;8.524;2022-08-19T11:32:47;0.10;;;0.10;;
10029;SDS011;5055;52.054;8.524;2022-08-19T11:35:16;0.10;;;0.10;;
10029;SDS011;5055;52.054;8.524;2022-08-19T11:37:46;0.10;;;0.10;;
10029;SDS011;5055;52.054;8.524;2022-08-19T11:40:14;0.10;;;0.10;;
10029;SDS011;5055;52.054;8.524;2022-08-19T11:42:43;0.00;;;0.00;;
10029;SDS011;5055;52.054;8.524;2022-08-19T11:45:26;0.10;;;0.10;;
10029;SDS011;5055;52.054;8.524;2022-08-19T11:47:55;0.10;;;0.10;;
10029;SDS011;5055;52.054;8.524;2022-08-19T11:50:24;0.10;;;0.10;;
10029;SDS011;5055;52.054;8.524;2022-08-19T11:52:53;0.10;;;0.10;;
10029;SDS011;5055;52.054;8.524;2022-08-19T11:55:23;0.10;;;0.10;;
10029;SDS011;5055;52.054;8.524;2022-08-19T11:57:51;0.10;;;0.10;;
10029;SDS011;5055;52.054;8.524;2022-08-19T12:00:20;0.10;;;0.10;;
10029;SDS011;5055;52.054;8.524;2022-08-19T12:02:50;0.10;;;0.10;;
10029;SDS011;5055;52.054;8.524;2022-08-19T12:05:18;0.10;;;0.10;;
10029;SDS011;5055;52.054;8.524;2022-08-19T12:07:47;0.10;;;0.10;;
10029;SDS011;5055;52.054;8.524;2022-08-19T12:10:16;0.10;;;0.10;;
10029;SDS011;5055;52.054;8.524;2022-08-19T12:12:51;0.10;;;0.10;;
10029;SDS011;5055;52.054;8.524;2022-08-19T12:15:24;0.10;;;0.10;;
10029;SDS011;5055;52.054;8.524;2022-08-19T12:18:04;0.10;;;0.10;;
10029;SDS011;5055;52.054;8.524;2022-08-19T12:20:34;0.00;;;0.00;;
10029;SDS011;5055;52.054;8.524;2022-08-19T12:23:03;0.10;;;0.10;;
10029;SDS011;5055;52.054;8.524;2022-08-19T12:25:32;0.10;;;0.10;;
10029;SDS011;5055;52.054;8.524;2022-08-19T12:28:01;0.10;;;0.10;;
10029;SDS011;5055;52.054;8.524;2022-08-19T12:30:30;0.10;;;0.10;;
10029;SDS011;5055;52.054;8.524;2022-08-19T12:32:58;0.00;;;0.00;;
10029;SDS011;5055;52.054;8.524;2022-08-19T12:35:28;0.05;;;0.05;;
10029;SDS011;5055;52.054;8.524;2022-08-19T12:37:57;0.10;;;0.10;;
10029;SDS011;5055;52.054;8.524;2022-08-19T12:40:26;0.10;;;0.10;;
10029;SDS011;5055;52.054;8.524;2022-08-19T12:42:54;0.10;;;0.10;;
10029;SDS011;5055;52.054;8.524;2022-08-19T12:45:23;0.00;;;0.00;;
10029;SDS011;5055;52.054;8.524;2022-08-19T12:47:52;0.10;;;0.10;;
10029;SDS011;5055;52.054;8.524;2022-08-19T12:50:21;0.10;;;0.10;;
10029;SDS011;5055;52.054;8.524;2022-08-19T12:52:51;0.10;;;0.10;;
10029;SDS011;5055;52.054;8.524;2022-08-19T12:55:20;0.08;;;0.08;;
10029;SDS011;5055;52.054;8.524;2022-08-19T12:57:48;0.10;;;0.10;;
10029;SDS011;5055;52.054;8.524;2022-08-19T13:00:18;0.10;;;0.10;;
10029;SDS011;5055;52.054;8.524;2022-08-19T13:02:49;0.10;;;0.10;;
10029;SDS011;5055;52.054;8.524;2022-08-19T13:05:23;0.10;;;0.10;;
10029;SDS011;5055;52.054;8.524;2022-08-19T13:07:56;0.00;;;0.00;;
10029;SDS011;5055;52.054;8.524;2022-08-19T13:10:27;0.10;;;0.10;;
10029;SDS011;5055;52.054;8.524;2022-08-19T13:12:58;0.10;;;0.10;;
10029;SDS011;5055;52.054;8.524;2022-08-19T13:15:28;0.10;;;0.10;;
10029;SDS011;5055;52.054;8.524;2022-08-19T13:17:57;0.00;;;0.00;;
10029;SDS011;5055;52.054;8.524;2022-08-19T13:20:26;0.10;;;0.10;;
10029;SDS011;5055;52.054;8.524;2022-08-19T13:22:57;0.10;;;0.10;;
10029;SDS011;5055;52.054;8.524;2022-08-19T13:25:26;0.10;;;0.10;;
10029;SDS011;5055;52.054;8.524;2022-08-19T13:27:54;0.10;;;0.10;;
10029;SDS011;5055;52.054;8.524;2022-08-19T13:30:23;0.00;;;0.00;;
10029;SDS011;5055;52.054;8.524;2022-08-19T13:33:10;0.03;;;0.03;;
10029;SDS011;5055;52.054;8.524;2022-08-19T13:35:42;0.10;;;0.10;;
10029;SDS011;5055;52.054;8.524;2022-08-19T13:38:15;0.00;;;0.00;;
10029;SDS011;5055;52.054;8.524;2022-08-19T13:40:44;0.10;;;0.10;;
10029;SDS011;5055;52.054;8.524;2022-08-19T13:43:14;0.10;;;0.10;;
10029;SDS011;5055;52.054;8.524;2022-08-19T13:45:49;0.00;;;0.00;;
10029;SDS011;5055;52.054;8.524;2022-08-19T13:48:22;0.00;;;0.00;;
10029;SDS011;5055;52.054;8.524;2022-08-19T13:50:51;0.10;;;0.10;;
10029;SDS011;5055;52.054;8.524;2022-08-19T13:53:22;0.10;;;0.10;;
10029;SDS011;5055;52.054;8.524;2022-08-19T13:55:51;0.10;;;0.10;;
10029;SDS011;5055;52.054;8.524;2022-08-19T13:58:20;0.10;;;0.10;;
10029;SDS011;5055;52.054;8.524;2022-08-19T14:00:49;0.10;;;0.10;;
10029;SDS011;5055;52.054;8.524;2022-08-19T14:03:18;0.05;;;0.05;;
10029;SDS011;5055;52.054;8.524;2022-08-19T14:05:47;0.10;;;0.10;;
10029;SDS011;5055;52.054;8.524;2022-08-19T14:08:15;0.10;;;0.10;;
10029;SDS011;5055;52.054;8.524;2022-08-19T14:10:46;0.00;;;0.00;;
10029;SDS011;5055;52.054;8.524;2022-08-19T14:13:15;0.10;;;0.10;;
10029;SDS011;5055;52.054;8.524;2022-08-19T14:15:46;0.10;;;0.10;;
10029;SDS011;5055;52.054;8.524;2022-08-19T14:18:15;0.10;;;0.10;;
10029;SDS011;5055;52.054;8.524;2022-08-19T14:20:45;0.10;;;0.10;;
10029;SDS011;5055;52.054;8.524;2022-08-19T14:23:14;0.10;;;0.10;;
10029;SDS011;5055;52.054;8.524;2022-08-19T14:25:42;0.10;;;0.10;;
10029;SDS011;5055;52.054;8.524;2022-08-19T14:28:14;0.10;;;0.10;;
10029;SDS011;5055;52.054;8.524;2022-08-19T14:30:43;0.00;;;0.00;;
10029;SDS011;5055;52.054;8.524;2022-08-19T14:33:11;0.10;;;0.10;;
10029;SDS011;5055;52.054;8.524;2022-08-19T14:35:40;0.00;;;0.00;;
10029;SDS011;5055;52.054;8.524;2022-08-19T14:38:14;0.00;;;0.00;;
10029;SDS011;5055;52.054;8.524;2022-08-19T14:40:53;0.00;;;0.00;;
10029;SDS011;5055;52.054;8.524;2022-08-19T14:43:25;0.00;;;0.00;;
10029;SDS011;5055;52.054;8.524;2022-08-19T14:45:53;0.00;;;0.00;;
10029;SDS011;5055;52.054;8.524;2022-08-19T14:48:24;0.00;;;0.00;;
10029;SDS011;5055;52.054;8.524;2022-08-19T14:50:54;0.00;;;0.00;;
10029;SDS011;5055;52.054;8.524;2022-08-19T14:53:23;0.10;;;0.10;;
10029;SDS011;5055;52.054;8.524;2022-08-19T14:55:52;0.00;;;0.00;;
10029;SDS011;5055;52.054;8.524;2022-08-19T14:58:21;0.10;;;0.10;;
10029;SDS011;5055;52.054;8.524;2022-08-19T15:00:58;0.10;;;0.10;;
10029;SDS011;5055;52.054;8.524;2022-08-19T15:03:28;0.00;;;0.00;;
10029;SDS011;5055;52.054;8.524;2022-08-19T15:05:59;0.10;;;0.10;;
10029;SDS011;5055;52.054;8.524;2022-08-19T15:08:30;0.00;;;0.00;;
10029;SDS011;5055;52.054;8.524;2022-08-19T15:11:02;0.00;;;0.00;;
10029;SDS011;5055;52.054;8.524;2022-08-19T15:13:37;0.00;;;0.00;;
10029;SDS011;5055;52.054;8.524;2022-08-19T15:16:09;0.00;;;0.00;;
10029;SDS011;5055;52.054;8.524;2022-08-19T15:18:44;0.00;;;0.00;;
10029;SDS011;5055;52.054;8.524;2022-08-19T15:21:16;0.00;;;0.00;;
10029;SDS011;5055;52.054;8.524;2022-08-19T15:23:53;0.10;;;0.10;;
10029;SDS011;5055;52.054;8.524;2022-08-19T15:26:23;0.03;;;0.03;;
10029;SDS011;5055;52.054;8.524;2022-08-19T15:28:54;0.00;;;0.00;;